Terminal Aerodrome Forecast
Issued by NWS Grand Junction, CO

Home | Current Version | Previous Version | Text Only | Print | Product List | Glossary On
Versions: 1 2 3 4 5 6 7 8 9 10 11 12 13 14 15 16 17 18 19 20 21 22
000
FTUS45 KGJT 221725
TAFGJT
TAF
KGJT 221725Z 2218/2318 VRB03KT P6SM SCT100
     FM222100 32007KT P6SM SCT100
     FM230600 08005KT P6SM SCT250
     FM231600 VRB05KT P6SM SCT250=

USA.gov is the U.S. government's official web portal to all federal, state and local government web resources and services.